createdAt,value
2018-05-15T00:02:08.742Z,47.50
2018-05-15T00:04:36.198Z,47.60
2018-05-15T00:07:03.675Z,48.00
2018-05-15T00:09:31.933Z,48.20
2018-05-15T00:11:59.519Z,48.10
2018-05-15T00:14:27.789Z,48.20
2018-05-15T00:16:56.042Z,48.40
2018-05-15T00:19:23.613Z,48.40
2018-05-15T00:21:52.578Z,49.00
2018-05-15T00:24:20.050Z,49.00
2018-05-15T00:26:47.535Z,49.20
2018-05-15T00:29:15.763Z,49.30
2018-05-15T00:31:43.295Z,49.20
2018-05-15T00:34:10.803Z,49.40
2018-05-15T00:36:38.286Z,49.60
2018-05-15T00:39:05.750Z,49.70
2018-05-15T00:41:33.212Z,49.80
2018-05-15T00:44:00.700Z,50.00
2018-05-15T00:46:28.184Z,49.80
2018-05-15T00:48:55.642Z,49.80
2018-05-15T00:51:23.103Z,50.00
2018-05-15T00:53:50.657Z,50.60
2018-05-15T00:56:18.150Z,50.30
2018-05-15T00:58:45.602Z,50.40
2018-05-15T01:01:13.067Z,50.20
2018-05-15T01:03:40.519Z,50.40
2018-05-15T01:06:07.992Z,50.30
2018-05-15T01:08:35.450Z,50.40
2018-05-15T01:11:03.011Z,50.50
2018-05-15T01:13:30.515Z,50.90
2018-05-15T01:15:58.078Z,50.80
2018-05-15T01:18:26.359Z,50.90
2018-05-15T01:20:54.595Z,51.30
2018-05-15T01:23:22.059Z,50.60
2018-05-15T01:25:49.540Z,50.90
2018-05-15T01:28:17.023Z,51.00
2018-05-15T01:30:45.250Z,51.60
2018-05-15T01:33:12.881Z,51.50
2018-05-15T01:35:40.439Z,51.40
2018-05-15T01:38:07.954Z,51.40
2018-05-15T01:40:35.507Z,51.40
2018-05-15T01:43:03.067Z,51.60
2018-05-15T01:45:31.288Z,51.90
2018-05-15T01:47:58.820Z,51.90
2018-05-15T01:50:27.075Z,52.20
2018-05-15T01:52:54.550Z,52.10
2018-05-15T01:55:22.813Z,52.50
2018-05-15T01:57:51.119Z,52.30
2018-05-15T02:00:18.648Z,52.60
2018-05-15T02:02:46.919Z,53.40
2018-05-15T02:05:14.421Z,53.00
2018-05-15T02:07:41.880Z,52.80
2018-05-15T02:10:09.335Z,53.10
2018-05-15T02:12:36.794Z,53.50
2018-05-15T02:15:04.256Z,53.40
2018-05-15T02:17:31.758Z,53.40
2018-05-15T02:19:59.311Z,53.80
2018-05-15T02:22:26.783Z,54.40
2018-05-15T02:24:54.326Z,53.90
2018-05-15T02:27:22.602Z,53.80
2018-05-15T02:29:50.215Z,53.70
2018-05-15T02:32:17.737Z,53.80
2018-05-15T02:34:45.242Z,53.70
2018-05-15T02:37:12.986Z,53.90
2018-05-15T02:39:40.459Z,54.00
2018-05-15T02:42:08.010Z,53.80
2018-05-15T02:44:35.511Z,53.70
2018-05-15T02:47:02.979Z,53.70
2018-05-15T02:49:30.444Z,54.20
2018-05-15T02:51:58.666Z,53.40
2018-05-15T02:54:26.214Z,53.40
2018-05-15T02:56:53.671Z,53.10
2018-05-15T02:59:21.167Z,52.90
2018-05-15T03:01:48.728Z,52.90
2018-05-15T03:04:16.284Z,52.90
2018-05-15T03:06:43.739Z,52.80
2018-05-15T03:09:11.315Z,52.70
2018-05-15T03:11:38.847Z,52.60
2018-05-15T03:14:07.022Z,52.60
2018-05-15T03:16:34.492Z,52.60
2018-05-15T03:19:02.109Z,52.60
2018-05-15T03:21:29.570Z,52.70
2018-05-15T03:23:57.035Z,52.90
2018-05-15T03:26:24.491Z,52.70
2018-05-15T03:28:51.970Z,52.80
2018-05-15T03:31:19.431Z,52.90
2018-05-15T03:33:46.915Z,52.90
2018-05-15T03:36:15.140Z,52.70
2018-05-15T03:38:42.594Z,52.60
2018-05-15T03:41:10.050Z,52.70
2018-05-15T03:43:37.513Z,52.90
2018-05-15T03:46:04.991Z,53.00
2018-05-15T03:48:32.565Z,52.90
2018-05-15T03:51:00.031Z,53.20
2018-05-15T03:53:28.251Z,52.90
2018-05-15T03:55:55.735Z,52.80
2018-05-15T03:58:24.018Z,53.40
2018-05-15T04:01:03.614Z,53.50
2018-05-15T04:03:42.883Z,53.60
2018-05-15T04:06:22.296Z,53.80
2018-05-15T04:08:49.750Z,54.10
2018-05-15T04:11:17.212Z,54.40
2018-05-15T04:13:44.696Z,54.20
2018-05-15T04:16:12.255Z,54.60
2018-05-15T04:18:39.814Z,54.80
2018-05-15T04:21:07.380Z,55.10
2018-05-15T04:23:34.844Z,55.50
2018-05-15T04:26:03.067Z,55.50
2018-05-15T04:28:30.565Z,55.50
2018-05-15T04:30:58.124Z,55.10
2018-05-15T04:33:25.579Z,55.30
2018-05-15T04:35:53.143Z,55.30
2018-05-15T04:38:21.371Z,55.30
2018-05-15T04:40:48.840Z,55.30
2018-05-15T04:43:16.289Z,55.20
2018-05-15T04:45:43.779Z,55.20
2018-05-15T04:48:11.405Z,54.90
2018-05-15T04:50:38.923Z,54.90
2018-05-15T04:53:07.178Z,55.00
2018-05-15T04:55:34.635Z,55.00
2018-05-15T04:58:02.191Z,55.80
2018-05-15T05:00:29.658Z,55.70
2018-05-15T05:02:57.123Z,55.50
2018-05-15T05:05:25.402Z,55.80
2018-05-15T05:07:53.632Z,55.20
2018-05-15T05:10:21.111Z,55.20
2018-05-15T05:12:48.570Z,54.80
2018-05-15T05:15:16.110Z,54.50
2018-05-15T05:17:43.583Z,54.60
2018-05-15T05:20:11.145Z,54.90
2018-05-15T05:22:38.620Z,54.70
2018-05-15T05:25:06.878Z,54.70
2018-05-15T05:27:34.448Z,54.60
2018-05-15T05:30:02.716Z,54.80
2018-05-15T05:32:30.295Z,54.20
2018-05-15T05:34:58.519Z,55.10
2018-05-15T05:37:26.006Z,55.00
2018-05-15T05:39:53.460Z,54.80
2018-05-15T05:42:21.019Z,54.80
2018-05-15T05:44:48.529Z,55.10
2018-05-15T05:47:15.983Z,54.60
2018-05-15T05:49:43.498Z,54.20
2018-05-15T05:52:10.985Z,54.20
2018-05-15T05:54:38.459Z,54.20
2018-05-15T05:57:05.962Z,53.90
2018-05-15T05:59:33.517Z,53.70
2018-05-15T06:02:02.538Z,53.70
2018-05-15T06:04:30.791Z,53.50
2018-05-15T06:06:58.355Z,53.50
2018-05-15T06:09:25.819Z,54.00
2018-05-15T06:11:54.045Z,53.50
2018-05-15T06:14:21.584Z,53.40
2018-05-15T06:16:49.095Z,53.20
2018-05-15T06:19:16.573Z,54.10
2018-05-15T06:21:44.798Z,53.30
2018-05-15T06:24:12.263Z,53.30
2018-05-15T06:26:39.742Z,53.10
2018-05-15T06:29:07.291Z,53.20
2018-05-15T06:31:35.521Z,53.40
2018-05-15T06:34:02.982Z,53.30
2018-05-15T06:36:30.441Z,53.20
2018-05-15T06:38:57.902Z,53.40
2018-05-15T06:41:25.367Z,52.80
2018-05-15T06:43:52.837Z,52.90
2018-05-15T06:46:20.319Z,52.80
2018-05-15T06:48:47.871Z,52.90
2018-05-15T06:51:15.429Z,52.60
2018-05-15T06:53:44.427Z,52.40
2018-05-15T06:56:11.898Z,52.30
2018-05-15T06:58:40.127Z,52.30
2018-05-15T07:01:07.587Z,52.30
2018-05-15T07:03:35.074Z,51.90
2018-05-15T07:06:02.557Z,52.00
2018-05-15T07:08:30.782Z,52.20
2018-05-15T07:10:58.322Z,52.20
2018-05-15T07:13:25.798Z,52.50
2018-05-15T07:15:53.280Z,52.30
2018-05-15T07:18:20.906Z,51.90
2018-05-15T07:20:48.517Z,52.10
2018-05-15T07:23:16.738Z,51.90
2018-05-15T07:25:44.293Z,51.90
2018-05-15T07:28:11.763Z,52.60
2018-05-15T07:30:39.233Z,52.30
2018-05-15T07:33:06.786Z,51.90
2018-05-15T07:35:34.290Z,51.50
2018-05-15T07:38:02.613Z,51.90
2018-05-15T07:40:31.010Z,51.30
2018-05-15T07:42:58.706Z,51.20
2018-05-15T07:45:27.076Z,51.10
2018-05-15T07:47:55.434Z,50.30
2018-05-15T07:50:23.022Z,50.20
2018-05-15T07:52:51.264Z,50.10
2018-05-15T07:55:18.975Z,50.00
2018-05-15T07:57:46.590Z,50.70
2018-05-15T08:00:14.098Z,50.20
2018-05-15T08:02:41.702Z,49.90
2018-05-15T08:05:09.172Z,50.90
2018-05-15T08:07:36.635Z,50.20
2018-05-15T08:10:04.891Z,49.70
2018-05-15T08:12:32.405Z,49.60
2018-05-15T08:14:59.870Z,49.30
2018-05-15T08:17:27.323Z,49.10
2018-05-15T08:19:54.820Z,49.00
2018-05-15T08:22:22.287Z,48.70
2018-05-15T08:24:49.893Z,48.20
2018-05-15T08:27:17.505Z,49.20
2018-05-15T08:29:45.184Z,47.80
2018-05-15T08:32:13.426Z,46.90
2018-05-15T08:34:40.960Z,46.80
2018-05-15T08:37:08.450Z,46.90
2018-05-15T08:39:36.687Z,47.00
2018-05-15T08:42:04.278Z,47.00
2018-05-15T08:44:32.869Z,47.60
2018-05-15T08:47:02.203Z,46.60
2018-05-15T08:49:30.484Z,46.70
2018-05-15T08:51:58.065Z,46.60
2018-05-15T08:54:25.741Z,45.80
2018-05-15T08:56:53.503Z,45.60
2018-05-15T08:59:21.040Z,46.80
2018-05-15T09:01:48.614Z,45.10
2018-05-15T09:04:16.210Z,45.40
2018-05-15T09:06:43.854Z,45.60
2018-05-15T09:09:11.421Z,45.10
2018-05-15T09:11:39.004Z,45.20
2018-05-15T09:14:07.229Z,43.00
2018-05-15T09:16:34.810Z,42.90
2018-05-15T09:19:02.255Z,43.10
2018-05-15T09:21:29.719Z,42.70
2018-05-15T09:23:57.346Z,41.90
2018-05-15T09:26:24.838Z,41.30
2018-05-15T09:28:52.420Z,41.60
2018-05-15T09:31:20.650Z,42.30
2018-05-15T09:33:48.145Z,41.60
2018-05-15T09:36:15.612Z,42.10
2018-05-15T09:38:43.150Z,42.20
2018-05-15T09:41:10.623Z,42.20
2018-05-15T09:43:54.751Z,42.40
2018-05-15T09:46:22.299Z,42.60
2018-05-15T09:48:49.763Z,42.50
2018-05-15T09:51:17.214Z,42.70
2018-05-15T09:53:44.694Z,42.20
2018-05-15T09:56:12.162Z,42.30
2018-05-15T09:58:40.413Z,42.10
2018-05-15T10:01:07.866Z,42.10
2018-05-15T10:03:36.846Z,41.90
2018-05-15T10:06:04.328Z,41.80
2018-05-15T10:08:31.984Z,42.20
2018-05-15T10:10:59.442Z,42.40
2018-05-15T10:13:26.909Z,41.60
2018-05-15T10:15:54.515Z,41.50
2018-05-15T10:18:21.987Z,41.60
2018-05-15T10:20:49.439Z,41.70
2018-05-15T10:23:16.906Z,42.40
2018-05-15T10:25:44.366Z,43.40
2018-05-15T10:28:11.838Z,42.40
2018-05-15T10:30:39.298Z,43.10
2018-05-15T10:33:06.850Z,42.20
2018-05-15T10:35:34.307Z,43.70
2018-05-15T10:38:01.776Z,42.60
2018-05-15T10:40:29.346Z,42.30
2018-05-15T10:42:56.812Z,43.00
2018-05-15T10:45:25.061Z,41.60
2018-05-15T10:47:52.637Z,41.50
2018-05-15T10:50:20.894Z,41.50
2018-05-15T10:52:48.510Z,41.30
2018-05-15T10:55:16.042Z,41.40
2018-05-15T10:57:44.286Z,42.40
2018-05-15T11:00:11.797Z,42.90
2018-05-15T11:02:39.392Z,42.30
2018-05-15T11:05:06.978Z,41.90
2018-05-15T11:07:35.231Z,41.20
2018-05-15T11:10:02.805Z,41.10
2018-05-15T11:12:30.474Z,41.70
2018-05-15T11:14:58.137Z,41.90
2018-05-15T11:17:26.067Z,41.40
2018-05-15T11:20:06.557Z,42.10
2018-05-15T11:22:47.443Z,42.90
2018-05-15T11:25:15.806Z,42.50
2018-05-15T11:27:43.283Z,43.10
2018-05-15T11:30:11.533Z,42.80
2018-05-15T11:32:39.082Z,42.60
2018-05-15T11:35:06.547Z,43.00
2018-05-15T11:37:34.788Z,42.30
2018-05-15T11:40:02.275Z,42.30
2018-05-15T11:42:29.830Z,42.30
2018-05-15T11:44:57.330Z,43.00
2018-05-15T11:47:25.615Z,43.50
2018-05-15T11:49:53.831Z,43.60
2018-05-15T11:52:21.305Z,42.90
2018-05-15T11:54:48.099Z,42.40
2018-05-15T11:57:15.574Z,41.90
2018-05-15T11:59:43.083Z,41.60
2018-05-15T12:02:10.511Z,41.80
2018-05-15T12:04:38.072Z,41.80
2018-05-15T12:07:05.627Z,41.70
2018-05-15T12:09:33.089Z,42.80
2018-05-15T12:12:00.556Z,42.80
2018-05-15T12:14:28.020Z,43.50
2018-05-15T12:16:56.242Z,42.50
2018-05-15T12:19:23.700Z,41.80
2018-05-15T12:21:51.163Z,42.40
2018-05-15T12:24:18.626Z,43.30
2018-05-15T12:26:46.083Z,41.30
2018-05-15T12:29:13.554Z,42.70
2018-05-15T12:31:41.017Z,42.70
2018-05-15T12:34:08.571Z,42.30
2018-05-15T12:36:36.056Z,42.50
2018-05-15T12:39:04.299Z,41.70
2018-05-15T12:41:31.939Z,41.70
2018-05-15T12:43:59.294Z,41.80
2018-05-15T12:46:26.767Z,42.10
2018-05-15T12:48:54.258Z,42.70
2018-05-15T12:51:22.516Z,41.00
2018-05-15T12:53:50.064Z,41.00
2018-05-15T12:56:19.043Z,40.10
2018-05-15T12:58:46.506Z,40.10
2018-05-15T13:01:13.960Z,40.30
2018-05-15T13:03:41.439Z,40.60
2018-05-15T13:06:08.999Z,40.90
2018-05-15T13:08:36.450Z,41.30
2018-05-15T13:11:05.423Z,41.50
2018-05-15T13:13:32.993Z,41.40
2018-05-15T13:16:00.562Z,41.20
2018-05-15T13:18:28.105Z,41.70
2018-05-15T13:20:56.274Z,41.70
2018-05-15T13:23:23.738Z,41.70
2018-05-15T13:25:51.195Z,42.10
2018-05-15T13:28:18.659Z,42.20
2018-05-15T13:30:46.214Z,42.80
2018-05-15T13:33:13.680Z,42.00
2018-05-15T13:35:41.137Z,42.30
2018-05-15T13:38:08.602Z,42.70
2018-05-15T13:40:36.828Z,43.90
2018-05-15T13:43:04.299Z,43.80
2018-05-15T13:45:31.759Z,44.00
2018-05-15T13:47:59.297Z,44.50
2018-05-15T13:50:26.885Z,46.10
2018-05-15T13:52:54.319Z,46.10
2018-05-15T13:55:21.788Z,46.30
2018-05-15T13:57:49.250Z,45.40
2018-05-15T14:00:16.780Z,44.60
2018-05-15T14:02:44.287Z,44.20
2018-05-15T14:05:11.825Z,44.10
2018-05-15T14:07:39.298Z,45.10
2018-05-15T14:10:06.758Z,44.40
2018-05-15T14:12:34.270Z,44.70
2018-05-15T14:15:02.475Z,45.40
2018-05-15T14:17:30.036Z,45.30
2018-05-15T14:19:57.494Z,46.10
2018-05-15T14:22:24.946Z,46.40
2018-05-15T14:24:53.931Z,46.90
2018-05-15T14:27:21.391Z,46.70
2018-05-15T14:29:49.282Z,47.40
2018-05-15T14:32:16.826Z,48.10
2018-05-15T14:34:44.281Z,48.90
2018-05-15T14:37:11.740Z,49.40
2018-05-15T14:39:39.202Z,49.70
2018-05-15T14:42:18.628Z,50.50
2018-05-15T14:44:46.200Z,52.00
2018-05-15T14:47:13.851Z,53.80
2018-05-15T14:49:41.366Z,56.30
2018-05-15T14:52:08.925Z,56.10
2018-05-15T14:54:36.423Z,57.30
2018-05-15T14:57:03.877Z,58.40
2018-05-15T14:59:31.438Z,60.80
2018-05-15T15:01:58.919Z,64.90
2018-05-15T15:04:27.176Z,69.40
2018-05-15T15:06:56.166Z,73.30
2018-05-15T15:09:23.722Z,73.20
2018-05-15T15:11:51.992Z,79.60
2018-05-15T15:14:19.455Z,79.70
2018-05-15T15:16:47.726Z,82.00
2018-05-15T15:19:15.286Z,81.90
2018-05-15T15:21:42.748Z,84.10
2018-05-15T15:24:10.303Z,84.40
2018-05-15T15:26:37.768Z,85.60
2018-05-15T15:29:06.047Z,85.30
2018-05-15T15:31:35.032Z,85.80
2018-05-15T15:34:02.587Z,85.70
2018-05-15T15:36:30.055Z,85.60
2018-05-15T15:38:58.316Z,87.30
2018-05-15T15:41:25.799Z,87.10
2018-05-15T15:43:54.027Z,89.00
2018-05-15T15:46:21.520Z,88.90
2018-05-15T15:48:49.072Z,89.60
2018-05-15T15:51:16.537Z,88.70
2018-05-15T15:53:44.861Z,90.10
2018-05-15T15:56:12.331Z,90.10
2018-05-15T15:58:39.791Z,90.50
2018-05-15T16:01:07.255Z,90.30
2018-05-15T16:03:34.722Z,90.50
2018-05-15T16:06:02.186Z,91.00
2018-05-15T16:08:29.659Z,90.70
2018-05-15T16:10:57.198Z,90.40
2018-05-15T16:13:24.668Z,90.20
2018-05-15T16:15:52.890Z,91.40
2018-05-15T16:18:20.366Z,91.30
2018-05-15T16:20:47.843Z,91.30
2018-05-15T16:23:15.302Z,90.90
2018-05-15T16:25:42.767Z,91.20
2018-05-15T16:28:11.041Z,90.60
2018-05-15T16:30:38.491Z,90.90
2018-05-15T16:33:05.961Z,91.10
2018-05-15T16:35:33.411Z,91.10
2018-05-15T16:38:02.399Z,91.60
2018-05-15T16:40:30.733Z,91.10
2018-05-15T16:42:58.247Z,91.40
2018-05-15T16:45:26.474Z,92.10
2018-05-15T16:47:53.946Z,91.70
2018-05-15T16:50:21.435Z,91.30
2018-05-15T16:52:49.691Z,92.10
2018-05-15T16:55:17.254Z,92.10
2018-05-15T16:57:44.751Z,91.90
2018-05-15T17:00:12.972Z,92.30
2018-05-15T17:02:40.454Z,92.30
2018-05-15T17:05:08.673Z,92.30
2018-05-15T17:07:36.179Z,92.30
2018-05-15T17:10:03.735Z,92.40
2018-05-15T17:12:31.289Z,92.50
2018-05-15T17:14:58.747Z,92.30
2018-05-15T17:17:26.209Z,92.50
2018-05-15T17:19:53.659Z,92.60
2018-05-15T17:22:21.171Z,92.20
2018-05-15T17:24:48.628Z,92.50
2018-05-15T17:27:16.235Z,92.30
2018-05-15T17:29:43.699Z,92.50
2018-05-15T17:32:11.959Z,92.40
2018-05-15T17:34:39.414Z,92.60
2018-05-15T17:37:06.985Z,92.90
2018-05-15T17:39:34.546Z,92.70
2018-05-15T17:42:02.135Z,93.00
2018-05-15T17:44:29.621Z,92.40
2018-05-15T17:46:57.127Z,93.40
2018-05-15T17:49:25.390Z,93.30
2018-05-15T17:51:52.956Z,93.30
2018-05-15T17:54:20.424Z,93.30
2018-05-15T17:56:48.719Z,92.90
2018-05-15T17:59:16.193Z,92.90
2018-05-15T18:01:43.757Z,93.00
2018-05-15T18:04:11.226Z,93.30
2018-05-15T18:06:38.716Z,93.30
2018-05-15T18:09:06.182Z,93.40
2018-05-15T18:11:34.447Z,93.40
2018-05-15T18:14:01.911Z,93.40
2018-05-15T18:16:30.155Z,93.10
2018-05-15T18:18:57.642Z,93.10
2018-05-15T18:21:25.213Z,93.30
2018-05-15T18:23:53.525Z,93.30
2018-05-15T18:26:21.036Z,93.30
2018-05-15T18:28:48.507Z,93.20
2018-05-15T18:31:16.754Z,93.80
2018-05-15T18:33:44.245Z,93.80
2018-05-15T18:36:12.496Z,93.40
2018-05-15T18:38:40.062Z,93.40
2018-05-15T18:41:08.307Z,93.70
2018-05-15T18:43:35.793Z,93.70
2018-05-15T18:46:04.068Z,94.10
2018-05-15T18:48:31.542Z,94.10
2018-05-15T18:50:59.840Z,94.20
2018-05-15T18:53:28.051Z,94.20
2018-05-15T18:55:55.532Z,94.10
2018-05-15T18:58:23.088Z,94.10
2018-05-15T19:00:50.650Z,93.90
2018-05-15T19:03:18.210Z,93.80
2018-05-15T19:05:45.679Z,94.00
2018-05-15T19:08:13.914Z,94.00
2018-05-15T19:10:41.397Z,94.00
2018-05-15T19:13:08.851Z,94.00
2018-05-15T19:15:36.409Z,93.90
2018-05-15T19:18:03.863Z,93.80
2018-05-15T19:20:31.416Z,93.80
2018-05-15T19:22:58.915Z,93.90
2018-05-15T19:25:26.481Z,94.00
2018-05-15T19:27:54.671Z,93.80
2018-05-15T19:30:22.224Z,93.80
2018-05-15T19:32:55.469Z,93.80
2018-05-15T19:35:28.811Z,93.60
2018-05-15T19:37:56.376Z,93.70
2018-05-15T19:40:24.398Z,93.80
2018-05-15T19:42:52.665Z,94.10
2018-05-15T19:45:20.124Z,94.00
2018-05-15T19:47:47.596Z,94.00
2018-05-15T19:50:15.915Z,94.20
2018-05-15T19:52:43.379Z,94.10
2018-05-15T19:55:10.894Z,94.10
2018-05-15T19:57:39.147Z,94.30
2018-05-15T20:00:07.422Z,94.30
2018-05-15T20:02:34.939Z,94.10
2018-05-15T20:05:02.450Z,94.20
2018-05-15T20:07:30.691Z,94.10
2018-05-15T20:09:58.243Z,94.10
2018-05-15T20:12:25.702Z,94.20
2018-05-15T20:14:53.279Z,94.40
2018-05-15T20:17:20.747Z,94.30
2018-05-15T20:19:48.216Z,94.30
2018-05-15T20:22:16.459Z,94.60
2018-05-15T20:24:43.934Z,94.60
2018-05-15T20:27:11.491Z,94.70
2018-05-15T20:29:38.954Z,94.80
2018-05-15T20:32:07.193Z,94.90
2018-05-15T20:34:34.667Z,94.90
2018-05-15T20:37:02.242Z,94.60
2018-05-15T20:39:30.477Z,94.80
2018-05-15T20:41:57.951Z,94.80
2018-05-15T20:44:25.551Z,94.70
2018-05-15T20:46:53.685Z,94.90
2018-05-15T20:49:21.170Z,94.80
2018-05-15T20:51:48.728Z,94.90
2018-05-15T20:54:16.194Z,94.90
2018-05-15T20:56:44.436Z,95.10
2018-05-15T20:59:11.915Z,95.10
2018-05-15T21:01:39.379Z,95.10
2018-05-15T21:04:07.631Z,95.30
2018-05-15T21:06:35.098Z,95.20
2018-05-15T21:09:02.585Z,95.10
2018-05-15T21:11:30.080Z,94.90
2018-05-15T21:13:57.541Z,95.00
2018-05-15T21:16:25.031Z,95.00
2018-05-15T21:18:53.355Z,95.30
2018-05-15T21:21:20.870Z,95.20
2018-05-15T21:23:49.142Z,95.30
2018-05-15T21:26:17.465Z,95.00
2018-05-15T21:28:44.975Z,95.00
2018-05-15T21:31:13.202Z,95.50
2018-05-15T21:33:40.675Z,95.30
2018-05-15T21:36:08.138Z,95.40
2018-05-15T21:38:35.696Z,95.50
2018-05-15T21:41:03.226Z,95.30
2018-05-15T21:43:30.743Z,95.40
2018-05-15T21:45:59.060Z,95.50
2018-05-15T21:48:26.583Z,95.40
2018-05-15T21:50:54.138Z,95.50
2018-05-15T21:53:22.416Z,95.60
2018-05-15T21:55:50.662Z,95.70
2018-05-15T21:58:18.146Z,95.70
2018-05-15T22:00:46.390Z,95.60
2018-05-15T22:03:13.878Z,95.60
2018-05-15T22:05:42.925Z,95.70
2018-05-15T22:08:10.403Z,95.70
2018-05-15T22:10:37.875Z,95.80
2018-05-15T22:13:17.367Z,95.90
2018-05-15T22:15:56.831Z,95.80
2018-05-15T22:18:36.280Z,95.80
2018-05-15T22:21:15.663Z,95.70
2018-05-15T22:23:42.725Z,95.70
2018-05-15T22:26:10.198Z,95.70
2018-05-15T22:28:37.859Z,95.80
2018-05-15T22:31:05.254Z,95.70
2018-05-15T22:33:33.508Z,95.70
2018-05-15T22:36:00.979Z,95.70
2018-05-15T22:38:29.239Z,95.80
2018-05-15T22:40:56.715Z,96.00
2018-05-15T22:43:25.008Z,96.00
2018-05-15T22:45:52.487Z,95.70
2018-05-15T22:48:19.956Z,95.60
2018-05-15T22:50:47.488Z,95.80
2018-05-15T22:53:14.914Z,95.90
2018-05-15T22:55:43.179Z,95.80
2018-05-15T22:58:10.663Z,95.80
2018-05-15T23:00:38.912Z,95.80
2018-05-15T23:03:06.386Z,95.80
2018-05-15T23:05:34.627Z,95.90
2018-05-15T23:08:02.206Z,95.80
2018-05-15T23:10:29.709Z,95.90
2018-05-15T23:12:57.185Z,95.70
2018-05-15T23:15:24.655Z,96.00
2018-05-15T23:17:52.134Z,96.00
2018-05-15T23:20:19.611Z,96.20
2018-05-15T23:22:47.853Z,96.00
2018-05-15T23:25:15.330Z,95.90
2018-05-15T23:27:43.596Z,96.00
2018-05-15T23:30:11.075Z,96.00
2018-05-15T23:32:39.331Z,96.20
2018-05-15T23:35:06.807Z,96.10
2018-05-15T23:37:35.053Z,96.00
2018-05-15T23:40:02.631Z,96.00
2018-05-15T23:42:30.871Z,96.20
2018-05-15T23:44:58.456Z,96.20
2018-05-15T23:47:25.931Z,96.30
2018-05-15T23:49:54.213Z,96.30
2018-05-15T23:52:21.688Z,96.30
2018-05-15T23:54:49.211Z,96.30
2018-05-15T23:57:17.449Z,95.80
2018-05-15T23:59:44.934Z,96.10
